McHenry, Mississippi
Current Conditions -  °F | °C
As of 6:53 PM on Saturday 20 Dec 2014 (Local Time) from KGPT Reporting Station
Overcast Overcast  
Wind Chill: 52°   Ceiling: 1200
Heat Index: 52°   Visibility: 10mi
Dew Point: 47°   Wind: 10mph
Humidity: 83%   Direction: 20°NNE
Pressure: 30.14"   Gusts: NA
Location:  30.71°N, 89.14°W
Report Text: KGPT 210053Z 02009KT 10SM OVC012 11/08 A3014 RMK AO2 SLP207 T01110083
Loading
Personal Weather Stations






























Interactive Weather Map New forecast layout! Learn more

10-Day Weather Forecast

Advertisements
Track Severe Weather on mobile